createdAt,value
2017-05-26T00:02:22.955Z,8.20
2017-05-26T00:04:51.352Z,8.96
2017-05-26T00:07:19.923Z,9.26
2017-05-26T00:09:48.313Z,7.84
2017-05-26T00:12:16.680Z,9.28
2017-05-26T00:14:45.041Z,9.06
2017-05-26T00:17:13.434Z,7.70
2017-05-26T00:19:41.801Z,8.80
2017-05-26T00:22:10.183Z,8.82
2017-05-26T00:24:38.557Z,7.14
2017-05-26T00:27:06.960Z,17.68
2017-05-26T00:29:35.328Z,7.54
2017-05-26T00:32:03.799Z,7.34
2017-05-26T00:34:32.195Z,7.74
2017-05-26T00:37:00.564Z,9.88
2017-05-26T00:39:28.951Z,7.82
2017-05-26T00:41:57.322Z,8.50
2017-05-26T00:44:25.738Z,9.36
2017-05-26T00:46:54.170Z,8.66
2017-05-26T00:49:22.539Z,7.70
2017-05-26T00:51:50.951Z,12.92
2017-05-26T00:54:19.320Z,8.94
2017-05-26T00:56:47.707Z,10.18
2017-05-26T00:59:16.167Z,7.90
2017-05-26T01:01:44.569Z,7.52
2017-05-26T01:04:13.015Z,8.98
2017-05-26T01:06:41.376Z,7.30
2017-05-26T01:09:09.792Z,7.96
2017-05-26T01:11:38.174Z,7.72
2017-05-26T01:14:06.559Z,7.58
2017-05-26T01:16:34.926Z,10.74
2017-05-26T01:19:03.451Z,7.88
2017-05-26T01:21:31.817Z,8.74
2017-05-26T01:24:00.189Z,7.44
2017-05-26T01:26:28.575Z,9.06
2017-05-26T01:28:57.004Z,9.04
2017-05-26T01:31:25.408Z,7.70
2017-05-26T01:33:54.220Z,8.10
2017-05-26T01:36:22.613Z,9.20
2017-05-26T01:38:50.985Z,8.92
2017-05-26T01:41:19.357Z,9.32
2017-05-26T01:43:47.741Z,8.74
2017-05-26T01:46:16.187Z,10.02
2017-05-26T01:48:44.575Z,8.62
2017-05-26T01:51:13.030Z,8.10
2017-05-26T01:53:41.443Z,7.76
2017-05-26T01:56:09.811Z,8.76
2017-05-26T01:58:38.123Z,7.56
2017-05-26T02:01:06.469Z,7.32
2017-05-26T02:03:34.883Z,10.16
2017-05-26T02:06:03.221Z,8.12
2017-05-26T02:08:31.527Z,7.60
2017-05-26T02:10:59.867Z,8.92
2017-05-26T02:13:28.182Z,9.14
2017-05-26T02:15:56.503Z,7.86
2017-05-26T02:18:24.863Z,8.12
2017-05-26T02:20:53.185Z,8.68
2017-05-26T02:23:21.532Z,7.92
2017-05-26T02:25:49.848Z,9.02
2017-05-26T02:28:18.211Z,8.32
2017-05-26T02:30:46.523Z,8.28
2017-05-26T02:33:14.905Z,7.92
2017-05-26T02:35:43.242Z,8.26
2017-05-26T02:38:10.793Z,8.38
2017-05-26T02:40:39.228Z,6.88
2017-05-26T02:43:07.613Z,7.86
2017-05-26T02:45:35.920Z,8.92
2017-05-26T02:48:04.285Z,10.46
2017-05-26T02:50:32.604Z,9.60
2017-05-26T02:53:01.034Z,7.86
2017-05-26T02:55:29.348Z,11.12
2017-05-26T02:57:57.673Z,9.38
2017-05-26T03:00:26.013Z,9.28
2017-05-26T03:02:54.328Z,10.00
2017-05-26T03:05:22.673Z,8.84
2017-05-26T03:07:50.998Z,13.32
2017-05-26T03:10:19.357Z,7.62
2017-05-26T03:12:47.731Z,8.70
2017-05-26T03:15:16.051Z,8.54
2017-05-26T03:17:44.417Z,12.22
2017-05-26T03:20:12.744Z,10.44
2017-05-26T03:22:41.177Z,10.26
2017-05-26T03:25:09.497Z,12.06
2017-05-26T03:27:37.925Z,9.72
2017-05-26T03:30:06.238Z,9.98
2017-05-26T03:32:34.555Z,9.26
2017-05-26T03:35:02.888Z,7.86
2017-05-26T03:37:31.312Z,8.22
2017-05-26T03:39:59.641Z,8.14
2017-05-26T03:42:27.973Z,8.00
2017-05-26T03:44:56.313Z,7.96
2017-05-26T03:47:24.624Z,8.16
2017-05-26T03:49:52.932Z,7.42
2017-05-26T03:52:21.314Z,8.12
2017-05-26T03:54:49.803Z,7.72
2017-05-26T03:57:18.165Z,7.66
2017-05-26T03:59:46.477Z,9.56
2017-05-26T04:02:14.780Z,7.68
2017-05-26T04:04:43.115Z,8.30
2017-05-26T04:07:11.539Z,7.70
2017-05-26T04:09:39.876Z,10.18
2017-05-26T04:12:08.303Z,14.62
2017-05-26T04:14:36.620Z,8.62
2017-05-26T04:17:04.980Z,7.84
2017-05-26T04:19:33.302Z,8.14
2017-05-26T04:22:01.744Z,9.80
2017-05-26T04:24:30.064Z,8.92
2017-05-26T04:26:58.443Z,7.70
2017-05-26T04:29:26.756Z,7.94
2017-05-26T04:31:55.075Z,8.78
2017-05-26T04:34:23.409Z,7.80
2017-05-26T04:36:51.727Z,7.22
2017-05-26T04:39:19.302Z,7.82
2017-05-26T04:41:47.624Z,8.06
2017-05-26T04:44:15.977Z,7.80
2017-05-26T04:46:44.293Z,7.20
2017-05-26T04:49:12.606Z,6.80
2017-05-26T04:51:40.952Z,5.84
2017-05-26T04:54:09.269Z,6.60
2017-05-26T04:56:37.622Z,9.70
2017-05-26T04:59:05.935Z,8.68
2017-05-26T05:01:34.282Z,5.78
2017-05-26T05:04:02.637Z,6.98
2017-05-26T05:06:30.959Z,10.54
2017-05-26T05:08:59.297Z,5.98
2017-05-26T05:11:27.662Z,6.42
2017-05-26T05:13:55.996Z,6.74
2017-05-26T05:16:24.311Z,6.96
2017-05-26T05:18:52.662Z,6.52
2017-05-26T05:21:20.983Z,10.52
2017-05-26T05:23:49.300Z,12.78
2017-05-26T05:26:17.632Z,7.98
2017-05-26T05:28:45.950Z,8.26
2017-05-26T05:31:14.294Z,6.56
2017-05-26T05:33:42.615Z,9.08
2017-05-26T05:36:11.013Z,11.12
2017-05-26T05:38:39.324Z,8.60
2017-05-26T05:41:07.640Z,7.74
2017-05-26T05:43:35.970Z,7.40
2017-05-26T05:46:04.289Z,7.02
2017-05-26T05:48:32.623Z,7.36
2017-05-26T05:51:00.950Z,15.36
2017-05-26T05:53:29.299Z,8.74
2017-05-26T05:55:57.615Z,7.84
2017-05-26T05:58:25.925Z,7.74
2017-05-26T06:00:54.269Z,7.32
2017-05-26T06:03:22.587Z,6.88
2017-05-26T06:05:50.930Z,6.68
2017-05-26T06:08:19.252Z,8.20
2017-05-26T06:10:47.599Z,7.98
2017-05-26T06:13:15.914Z,8.28
2017-05-26T06:15:44.232Z,7.74
2017-05-26T06:18:12.568Z,10.70
2017-05-26T06:20:40.880Z,8.86
2017-05-26T06:23:09.222Z,7.58
2017-05-26T06:25:37.531Z,8.10
2017-05-26T06:28:05.845Z,7.32
2017-05-26T06:30:34.196Z,8.04
2017-05-26T06:33:02.523Z,7.96
2017-05-26T06:35:30.872Z,7.86
2017-05-26T06:37:59.189Z,8.72
2017-05-26T06:40:27.515Z,8.62
2017-05-26T06:42:55.858Z,6.40
2017-05-26T06:45:24.214Z,6.82
2017-05-26T06:47:52.560Z,6.78
2017-05-26T06:50:20.871Z,8.96
2017-05-26T06:52:49.189Z,7.22
2017-05-26T06:55:17.529Z,6.06
2017-05-26T06:57:45.840Z,6.70
2017-05-26T07:00:14.214Z,6.54
2017-05-26T07:02:42.529Z,6.58
2017-05-26T07:05:10.845Z,6.66
2017-05-26T07:07:39.191Z,4.80
2017-05-26T07:10:07.504Z,5.92
2017-05-26T07:12:35.841Z,5.68
2017-05-26T07:15:04.164Z,5.02
2017-05-26T07:17:32.471Z,6.64
2017-05-26T07:20:00.815Z,4.66
2017-05-26T07:22:29.131Z,4.96
2017-05-26T07:24:57.468Z,4.52
2017-05-26T07:27:25.783Z,5.18
2017-05-26T07:29:54.104Z,4.78
2017-05-26T07:32:22.440Z,3.70
2017-05-26T07:34:50.756Z,4.34
2017-05-26T07:37:19.106Z,5.96
2017-05-26T07:39:47.432Z,4.86
2017-05-26T07:42:15.793Z,4.58
2017-05-26T07:44:44.106Z,4.40
2017-05-26T07:47:12.426Z,4.54
2017-05-26T07:49:40.772Z,6.30
2017-05-26T07:52:09.088Z,4.96
2017-05-26T07:54:37.419Z,4.22
2017-05-26T07:57:05.735Z,4.30
2017-05-26T07:59:34.080Z,4.58
2017-05-26T08:02:02.398Z,4.00
2017-05-26T08:04:30.722Z,4.40
2017-05-26T08:07:03.325Z,4.66
2017-05-26T08:09:31.645Z,4.72
2017-05-26T08:11:59.986Z,4.06
2017-05-26T08:14:30.345Z,3.84
2017-05-26T08:16:59.527Z,6.00
2017-05-26T08:19:27.841Z,4.04
2017-05-26T08:21:56.159Z,4.28
2017-05-26T08:24:24.501Z,4.12
2017-05-26T08:26:52.828Z,3.66
2017-05-26T08:29:21.171Z,4.34
2017-05-26T08:31:49.492Z,5.18
2017-05-26T08:34:17.855Z,3.96
2017-05-26T08:36:46.176Z,3.90
2017-05-26T08:39:14.491Z,3.68
2017-05-26T08:41:42.828Z,3.76
2017-05-26T08:44:11.146Z,3.68
2017-05-26T08:46:39.515Z,4.34
2017-05-26T08:49:07.829Z,4.06
2017-05-26T08:51:36.174Z,3.84
2017-05-26T08:54:04.483Z,3.82
2017-05-26T08:56:32.794Z,3.62
2017-05-26T08:59:01.156Z,5.32
2017-05-26T09:01:29.470Z,3.62
2017-05-26T09:03:57.803Z,4.38
2017-05-26T09:06:26.118Z,3.80
2017-05-26T09:08:54.484Z,4.40
2017-05-26T09:11:22.890Z,4.40
2017-05-26T09:13:51.187Z,5.10
2017-05-26T09:16:19.519Z,3.78
2017-05-26T09:18:47.843Z,4.22
2017-05-26T09:21:16.183Z,4.06
2017-05-26T09:23:44.501Z,4.50
2017-05-26T09:26:12.847Z,4.12
2017-05-26T09:28:41.152Z,3.52
2017-05-26T09:31:09.464Z,3.92
2017-05-26T09:33:37.796Z,3.42
2017-05-26T09:36:06.113Z,3.52
2017-05-26T09:38:34.453Z,3.06
2017-05-26T09:41:03.195Z,3.74
2017-05-26T09:43:31.559Z,5.78
2017-05-26T09:45:59.867Z,3.86
2017-05-26T09:48:27.422Z,3.34
2017-05-26T09:50:55.763Z,4.16
2017-05-26T09:53:24.076Z,4.30
2017-05-26T09:55:52.436Z,3.88
2017-05-26T09:58:20.756Z,2.94
2017-05-26T10:00:49.119Z,3.56
2017-05-26T10:03:17.475Z,4.54
2017-05-26T10:05:45.791Z,3.78
2017-05-26T10:08:14.132Z,3.46
2017-05-26T10:10:42.443Z,3.70
2017-05-26T10:13:10.784Z,3.46
2017-05-26T10:15:39.105Z,2.88
2017-05-26T10:18:07.467Z,3.74
2017-05-26T10:20:35.779Z,3.36
2017-05-26T10:23:04.092Z,3.86
2017-05-26T10:25:32.434Z,2.94
2017-05-26T10:28:00.753Z,3.44
2017-05-26T10:30:29.229Z,8.36
2017-05-26T10:32:57.548Z,5.76
2017-05-26T10:35:25.914Z,3.60
2017-05-26T10:37:54.227Z,3.00
2017-05-26T10:40:22.624Z,3.22
2017-05-26T10:42:51.010Z,4.64
2017-05-26T10:45:19.320Z,3.16
2017-05-26T10:47:47.665Z,3.24
2017-05-26T10:50:15.980Z,4.30
2017-05-26T10:55:21.883Z,3.48
2017-05-26T10:57:50.231Z,4.06
2017-05-26T11:00:18.547Z,3.16
2017-05-26T11:02:46.884Z,3.68
2017-05-26T11:05:15.261Z,3.10
2017-05-26T11:07:43.580Z,3.00
2017-05-26T11:10:11.987Z,4.52
2017-05-26T11:12:40.305Z,2.94
2017-05-26T11:15:08.740Z,3.54
2017-05-26T11:17:37.059Z,3.72
2017-05-26T11:20:05.448Z,5.34
2017-05-26T11:22:33.788Z,3.30
2017-05-26T11:25:02.106Z,3.06
2017-05-26T11:27:30.438Z,4.32
2017-05-26T11:29:58.755Z,3.78
2017-05-26T11:32:27.101Z,3.30
2017-05-26T11:34:57.357Z,2.76
2017-05-26T11:37:25.668Z,3.54
2017-05-26T11:39:54.000Z,3.94
2017-05-26T11:42:22.322Z,4.06
2017-05-26T11:44:50.660Z,3.38
2017-05-26T11:47:19.060Z,5.02
2017-05-26T11:49:47.403Z,3.14
2017-05-26T11:52:15.719Z,3.34
2017-05-26T11:54:44.058Z,3.12
2017-05-26T11:57:12.391Z,3.60
2017-05-26T11:59:40.717Z,3.18
2017-05-26T12:02:09.053Z,3.18
2017-05-26T12:04:37.372Z,3.12
2017-05-26T12:07:05.735Z,2.94
2017-05-26T12:09:34.073Z,5.58
2017-05-26T12:12:02.392Z,3.76
2017-05-26T12:14:30.746Z,3.50
2017-05-26T12:16:59.065Z,3.06
2017-05-26T12:19:27.399Z,2.84
2017-05-26T12:21:57.497Z,3.14
2017-05-26T12:24:25.924Z,3.42
2017-05-26T12:26:54.248Z,4.52
2017-05-26T12:29:22.563Z,3.82
2017-05-26T12:31:50.906Z,3.62
2017-05-26T12:34:19.217Z,2.90
2017-05-26T12:36:47.567Z,5.48
2017-05-26T12:39:15.880Z,3.80
2017-05-26T12:41:44.236Z,3.58
2017-05-26T12:44:12.591Z,2.90
2017-05-26T12:46:40.910Z,5.76
2017-05-26T12:49:09.247Z,3.62
2017-05-26T12:51:37.568Z,10.74
2017-05-26T12:54:05.899Z,3.22
2017-05-26T12:56:34.216Z,3.00
2017-05-26T12:59:02.558Z,3.66
2017-05-26T13:01:30.871Z,3.34
2017-05-26T13:03:59.187Z,2.82
2017-05-26T13:06:27.528Z,2.82
2017-05-26T13:08:55.840Z,2.92
2017-05-26T13:11:24.168Z,3.44
2017-05-26T13:13:52.476Z,3.16
2017-05-26T13:16:20.790Z,3.06
2017-05-26T13:18:49.122Z,3.44
2017-05-26T13:21:17.437Z,2.74
2017-05-26T13:23:45.776Z,3.92
2017-05-26T13:26:14.097Z,3.46
2017-05-26T13:28:42.448Z,3.42
2017-05-26T13:31:10.759Z,2.96
2017-05-26T13:33:39.081Z,2.96
2017-05-26T13:36:07.430Z,2.90
2017-05-26T13:38:35.739Z,3.62
2017-05-26T13:41:04.090Z,4.62
2017-05-26T13:43:32.403Z,4.16
2017-05-26T13:46:00.767Z,3.56
2017-05-26T13:48:29.080Z,2.80
2017-05-26T13:50:57.390Z,2.88
2017-05-26T13:53:25.924Z,2.84
2017-05-26T13:55:54.247Z,2.96
2017-05-26T13:58:22.586Z,3.50
2017-05-26T14:00:50.905Z,2.84
2017-05-26T14:03:19.248Z,6.10
2017-05-26T14:05:47.563Z,3.26
2017-05-26T14:08:15.871Z,3.38
2017-05-26T14:10:44.238Z,2.62
2017-05-26T14:13:12.551Z,2.94
2017-05-26T14:15:40.888Z,3.14
2017-05-26T14:18:09.228Z,3.00
2017-05-26T14:20:37.643Z,3.04
2017-05-26T14:23:05.976Z,2.82
2017-05-26T14:25:34.284Z,2.80
2017-05-26T14:28:02.619Z,2.80
2017-05-26T14:30:30.944Z,2.62
2017-05-26T14:32:59.308Z,2.88
2017-05-26T14:35:27.640Z,3.26
2017-05-26T14:37:55.979Z,3.26
2017-05-26T14:40:24.323Z,3.24
2017-05-26T14:42:52.639Z,3.80
2017-05-26T14:45:20.976Z,2.92
2017-05-26T14:47:49.287Z,3.06
2017-05-26T14:50:17.625Z,2.88
2017-05-26T14:52:45.588Z,3.18
2017-05-26T14:55:13.922Z,2.82
2017-05-26T14:57:42.253Z,3.52
2017-05-26T15:00:10.577Z,3.02
2017-05-26T15:02:38.945Z,3.16
2017-05-26T15:05:07.257Z,2.98
2017-05-26T15:07:35.620Z,5.54
2017-05-26T15:10:03.932Z,3.46
2017-05-26T15:12:32.248Z,6.10
2017-05-26T15:15:00.581Z,5.72
2017-05-26T15:17:28.889Z,2.76
2017-05-26T15:19:57.225Z,2.84
2017-05-26T15:22:25.538Z,2.96
2017-05-26T15:24:53.875Z,3.68
2017-05-26T15:27:22.205Z,3.24
2017-05-26T15:29:50.514Z,3.68
2017-05-26T15:32:18.847Z,3.52
2017-05-26T15:34:47.260Z,3.44
2017-05-26T15:37:15.584Z,3.02
2017-05-26T15:39:43.989Z,3.10
2017-05-26T15:42:12.363Z,3.24
2017-05-26T15:44:40.817Z,5.10
2017-05-26T15:47:09.141Z,3.72
2017-05-26T15:49:37.504Z,7.58
2017-05-26T15:52:05.812Z,3.92
2017-05-26T15:54:34.197Z,3.28
2017-05-26T15:57:02.648Z,3.12
2017-05-26T15:59:30.965Z,3.24
2017-05-26T16:01:59.299Z,3.46
2017-05-26T16:04:27.607Z,3.74
2017-05-26T16:06:55.973Z,3.12
2017-05-26T16:09:24.293Z,3.34
2017-05-26T16:11:52.600Z,3.30
2017-05-26T16:14:20.937Z,3.24
2017-05-26T16:16:49.248Z,2.90
2017-05-26T16:19:17.579Z,3.00
2017-05-26T16:21:45.888Z,3.44
2017-05-26T16:24:14.263Z,3.38
2017-05-26T16:26:42.624Z,3.88
2017-05-26T16:29:10.932Z,3.24
2017-05-26T16:31:39.268Z,3.76
2017-05-26T16:34:07.578Z,3.20
2017-05-26T16:36:35.920Z,5.52
2017-05-26T16:39:04.283Z,3.60
2017-05-26T16:41:32.661Z,4.76
2017-05-26T16:44:00.984Z,4.94
2017-05-26T16:46:29.303Z,4.08
2017-05-26T16:48:57.654Z,3.58
2017-05-26T16:51:25.979Z,4.88
2017-05-26T16:53:54.321Z,3.50
2017-05-26T16:56:22.634Z,3.36
2017-05-26T16:58:50.969Z,5.10
2017-05-26T17:01:19.281Z,4.42
2017-05-26T17:03:47.605Z,12.36
2017-05-26T17:06:15.949Z,4.02
2017-05-26T17:08:44.275Z,5.62
2017-05-26T17:11:12.616Z,3.86
2017-05-26T17:13:40.929Z,3.78
2017-05-26T17:16:09.301Z,3.88
2017-05-26T17:18:37.621Z,4.10
2017-05-26T17:21:05.933Z,4.22
2017-05-26T17:23:34.270Z,5.90
2017-05-26T17:26:02.589Z,3.90
2017-05-26T17:28:30.925Z,4.12
2017-05-26T17:30:59.240Z,4.34
2017-05-26T17:33:27.604Z,4.24
2017-05-26T17:35:55.920Z,3.42
2017-05-26T17:38:24.236Z,3.82
2017-05-26T17:40:52.571Z,4.02
2017-05-26T17:43:20.889Z,4.30
2017-05-26T17:45:49.225Z,4.40
2017-05-26T17:48:17.536Z,4.04
2017-05-26T17:50:45.909Z,3.82
2017-05-26T17:53:14.260Z,4.10
2017-05-26T17:55:42.636Z,4.38
2017-05-26T17:58:11.075Z,4.36
2017-05-26T18:00:39.389Z,3.94
2017-05-26T18:03:07.729Z,4.04
2017-05-26T18:05:36.036Z,4.38
2017-05-26T18:08:04.383Z,4.58
2017-05-26T18:10:32.702Z,4.72
2017-05-26T18:13:01.046Z,3.74
2017-05-26T18:15:29.409Z,4.08
2017-05-26T18:17:57.726Z,4.10
2017-05-26T18:20:26.070Z,4.38
2017-05-26T18:22:54.392Z,4.10
2017-05-26T18:25:22.726Z,4.30
2017-05-26T18:27:51.040Z,4.10
2017-05-26T18:30:19.353Z,4.18
2017-05-26T18:32:47.717Z,3.84
2017-05-26T18:35:16.032Z,4.66
2017-05-26T18:37:44.369Z,3.96
2017-05-26T18:40:12.692Z,4.38
2017-05-26T18:42:41.034Z,4.10
2017-05-26T18:45:09.346Z,3.90
2017-05-26T18:47:37.652Z,6.80
2017-05-26T18:50:05.983Z,4.96
2017-05-26T18:52:34.301Z,4.02
2017-05-26T18:55:02.665Z,4.38
2017-05-26T18:57:30.982Z,4.02
2017-05-26T18:59:59.350Z,3.88
2017-05-26T19:02:27.669Z,3.78
2017-05-26T19:04:55.977Z,4.20
2017-05-26T19:07:24.315Z,7.84
2017-05-26T19:09:52.634Z,4.14
2017-05-26T19:12:20.969Z,4.78
2017-05-26T19:14:49.287Z,5.34
2017-05-26T19:17:17.628Z,5.00
2017-05-26T19:19:45.944Z,4.32
2017-05-26T19:22:14.263Z,4.04
2017-05-26T19:24:42.657Z,5.38
2017-05-26T19:27:10.992Z,4.82
2017-05-26T19:29:39.330Z,4.56
2017-05-26T19:32:07.647Z,4.44
2017-05-26T19:34:36.016Z,4.12
2017-05-26T19:37:04.320Z,4.52
2017-05-26T19:39:32.665Z,7.14
2017-05-26T19:42:00.991Z,6.56
2017-05-26T19:44:29.321Z,4.70
2017-05-26T19:46:57.655Z,5.40
2017-05-26T19:49:25.984Z,5.10
2017-05-26T19:51:54.351Z,5.02
2017-05-26T19:54:22.677Z,5.06
2017-05-26T19:56:51.011Z,8.12
2017-05-26T19:59:19.342Z,5.50
2017-05-26T20:01:47.673Z,5.72
2017-05-26T20:04:16.017Z,5.56
2017-05-26T20:06:44.337Z,7.84
2017-05-26T20:09:12.700Z,5.02
2017-05-26T20:11:41.015Z,4.34
2017-05-26T20:14:09.371Z,6.32
2017-05-26T20:16:37.715Z,6.44
2017-05-26T20:19:06.028Z,7.48
2017-05-26T20:21:34.369Z,10.40
2017-05-26T20:24:02.688Z,13.12
2017-05-26T20:26:31.028Z,6.46
2017-05-26T20:28:59.344Z,5.28
2017-05-26T20:31:27.656Z,5.94
2017-05-26T20:33:56.014Z,11.24
2017-05-26T20:36:24.323Z,7.04
2017-05-26T20:38:52.734Z,5.58
2017-05-26T20:41:21.046Z,7.40
2017-05-26T20:43:49.384Z,6.78
2017-05-26T20:46:17.695Z,7.56
2017-05-26T20:48:46.011Z,6.56
2017-05-26T20:51:14.349Z,5.52
2017-05-26T20:53:42.662Z,6.80
2017-05-26T20:56:10.996Z,7.74
2017-05-26T20:58:39.310Z,8.54
2017-05-26T21:01:07.681Z,8.70
2017-05-26T21:03:36.009Z,8.82
2017-05-26T21:06:04.328Z,13.52
2017-05-26T21:08:32.690Z,8.16
2017-05-26T21:11:01.014Z,9.40
2017-05-26T21:13:29.358Z,12.42
2017-05-26T21:15:57.673Z,13.76
2017-05-26T21:18:26.045Z,14.14
2017-05-26T21:20:54.361Z,21.98
2017-05-26T21:23:22.681Z,19.78
2017-05-26T21:25:51.021Z,11.90
2017-05-26T21:28:19.344Z,12.70
2017-05-26T21:30:47.683Z,9.92
2017-05-26T21:33:16.003Z,16.94
2017-05-26T21:35:44.356Z,17.42
2017-05-26T21:38:12.703Z,50.46
2017-05-26T21:40:41.039Z,39.34
2017-05-26T21:43:09.379Z,65.46
2017-05-26T21:45:37.696Z,28.12
2017-05-26T21:48:06.038Z,36.04
2017-05-26T21:50:34.356Z,38.78
2017-05-26T21:53:02.713Z,49.02
2017-05-26T21:55:31.031Z,69.22
2017-05-26T21:57:59.352Z,63.70
2017-05-26T22:00:27.699Z,109.40
2017-05-26T22:02:56.406Z,32.08
2017-05-26T22:05:24.744Z,10.44
2017-05-26T22:07:53.056Z,9.86
2017-05-26T22:10:21.402Z,7.68
2017-05-26T22:12:49.714Z,8.20
2017-05-26T22:15:18.053Z,7.04
2017-05-26T22:17:46.389Z,9.74
2017-05-26T22:20:14.692Z,7.82
2017-05-26T22:22:43.032Z,11.36
2017-05-26T22:25:11.344Z,7.60
2017-05-26T22:27:39.708Z,7.22
2017-05-26T22:30:08.021Z,8.06
2017-05-26T22:32:36.338Z,6.96
2017-05-26T22:35:04.677Z,7.16
2017-05-26T22:37:32.988Z,8.06
2017-05-26T22:40:01.317Z,7.34
2017-05-26T22:42:29.657Z,7.00
2017-05-26T22:44:58.008Z,7.40
2017-05-26T22:47:26.330Z,6.74
2017-05-26T22:49:54.653Z,7.98
2017-05-26T22:52:22.988Z,15.50
2017-05-26T22:54:51.331Z,7.76
2017-05-26T22:57:19.662Z,9.84
2017-05-26T22:59:47.975Z,7.88
2017-05-26T23:02:16.341Z,7.80
2017-05-26T23:04:44.660Z,14.92
2017-05-26T23:07:12.993Z,20.26
2017-05-26T23:09:41.358Z,10.58
2017-05-26T23:12:09.675Z,8.30
2017-05-26T23:14:38.040Z,7.48
2017-05-26T23:17:06.358Z,9.26
2017-05-26T23:19:34.701Z,7.92
2017-05-26T23:22:03.015Z,10.82
2017-05-26T23:24:31.330Z,7.64
2017-05-26T23:26:59.712Z,8.02
2017-05-26T23:29:28.020Z,7.62
2017-05-26T23:31:56.359Z,7.88
2017-05-26T23:34:24.677Z,7.40
2017-05-26T23:36:53.052Z,8.02
2017-05-26T23:39:21.422Z,7.46
2017-05-26T23:41:49.724Z,7.48
2017-05-26T23:44:18.057Z,7.24
2017-05-26T23:46:46.382Z,9.48
2017-05-26T23:49:14.717Z,8.60
2017-05-26T23:51:43.032Z,8.04
2017-05-26T23:54:11.514Z,9.54
2017-05-26T23:56:39.828Z,9.10
2017-05-26T23:59:08.144Z,7.94
